sensor_id;sensor_type;location;lat;lon;timestamp;pressure;altitude;pressure_sealevel;temperature;humidity
19761;BME280;10039;42.632;23.408;2024-03-29T00:01:50;94767.50;;;11.76;56.18
19761;BME280;10039;42.632;23.408;2024-03-29T00:04:16;94779.69;;;11.77;56.54
19761;BME280;10039;42.632;23.408;2024-03-29T00:06:41;94770.94;;;11.77;57.09
19761;BME280;10039;42.632;23.408;2024-03-29T00:09:07;94759.09;;;11.62;56.84
19761;BME280;10039;42.632;23.408;2024-03-29T00:11:32;94773.28;;;11.75;56.88
19761;BME280;10039;42.632;23.408;2024-03-29T00:13:58;94764.78;;;11.64;56.66
19761;BME280;10039;42.632;23.408;2024-03-29T00:16:23;94774.47;;;11.58;57.04
19761;BME280;10039;42.632;23.408;2024-03-29T00:18:53;94784.75;;;11.43;57.33
19761;BME280;10039;42.632;23.408;2024-03-29T00:21:19;94772.00;;;11.35;57.53
19761;BME280;10039;42.632;23.408;2024-03-29T00:23:44;94787.56;;;11.52;57.22
19761;BME280;10039;42.632;23.408;2024-03-29T00:26:11;94772.72;;;11.35;57.05
19761;BME280;10039;42.632;23.408;2024-03-29T00:28:37;94748.38;;;11.02;57.43
19761;BME280;10039;42.632;23.408;2024-03-29T00:31:03;94799.28;;;11.42;57.75
19761;BME280;10039;42.632;23.408;2024-03-29T00:33:29;94798.53;;;11.42;57.69
19761;BME280;10039;42.632;23.408;2024-03-29T00:35:55;94756.72;;;11.19;57.14
19761;BME280;10039;42.632;23.408;2024-03-29T00:38:21;94788.75;;;11.51;57.17
19761;BME280;10039;42.632;23.408;2024-03-29T00:40:46;94807.63;;;11.60;57.36
19761;BME280;10039;42.632;23.408;2024-03-29T00:43:12;94794.59;;;11.46;57.56
19761;BME280;10039;42.632;23.408;2024-03-29T00:45:37;94803.03;;;11.45;57.24
19761;BME280;10039;42.632;23.408;2024-03-29T00:48:03;94802.47;;;11.21;58.50
19761;BME280;10039;42.632;23.408;2024-03-29T00:50:29;94815.41;;;11.07;58.81
19761;BME280;10039;42.632;23.408;2024-03-29T00:52:55;94800.13;;;10.92;59.31
19761;BME280;10039;42.632;23.408;2024-03-29T00:55:20;94823.47;;;10.88;59.38
19761;BME280;10039;42.632;23.408;2024-03-29T00:57:46;94803.78;;;10.82;59.03
19761;BME280;10039;42.632;23.408;2024-03-29T01:00:12;94811.47;;;10.80;59.40
19761;BME280;10039;42.632;23.408;2024-03-29T01:02:37;94766.66;;;10.36;59.41
19761;BME280;10039;42.632;23.408;2024-03-29T01:05:03;94801.94;;;10.63;59.84
19761;BME280;10039;42.632;23.408;2024-03-29T01:07:29;94790.13;;;10.44;59.94
19761;BME280;10039;42.632;23.408;2024-03-29T01:09:55;94795.03;;;10.46;60.51
19761;BME280;10039;42.632;23.408;2024-03-29T01:12:20;94793.75;;;10.54;59.56
19761;BME280;10039;42.632;23.408;2024-03-29T01:14:46;94829.31;;;10.67;60.15
19761;BME280;10039;42.632;23.408;2024-03-29T01:17:11;94802.75;;;10.60;59.88
19761;BME280;10039;42.632;23.408;2024-03-29T01:19:37;94821.25;;;10.51;60.37
19761;BME280;10039;42.632;23.408;2024-03-29T01:22:03;94830.00;;;10.51;60.08
19761;BME280;10039;42.632;23.408;2024-03-29T01:24:29;94809.84;;;10.31;60.61
19761;BME280;10039;42.632;23.408;2024-03-29T01:26:55;94846.28;;;10.57;60.33
19761;BME280;10039;42.632;23.408;2024-03-29T01:29:21;94808.06;;;10.24;59.53
19761;BME280;10039;42.632;23.408;2024-03-29T01:31:46;94832.75;;;10.48;60.09
19761;BME280;10039;42.632;23.408;2024-03-29T01:34:12;94830.56;;;10.43;59.47
19761;BME280;10039;42.632;23.408;2024-03-29T01:36:37;94802.53;;;10.35;59.17
19761;BME280;10039;42.632;23.408;2024-03-29T01:39:03;94846.72;;;10.71;59.05
19761;BME280;10039;42.632;23.408;2024-03-29T01:41:29;94852.75;;;10.75;58.76
19761;BME280;10039;42.632;23.408;2024-03-29T01:43:54;94838.38;;;10.69;59.03
19761;BME280;10039;42.632;23.408;2024-03-29T01:46:23;94827.94;;;10.59;58.90
19761;BME280;10039;42.632;23.408;2024-03-29T01:48:50;94832.28;;;10.69;59.43
19761;BME280;10039;42.632;23.408;2024-03-29T01:51:16;94848.75;;;10.83;58.89
19761;BME280;10039;42.632;23.408;2024-03-29T01:53:43;94847.66;;;10.81;59.37
19761;BME280;10039;42.632;23.408;2024-03-29T01:56:09;94824.94;;;10.57;59.11
19761;BME280;10039;42.632;23.408;2024-03-29T01:58:35;94864.50;;;10.78;59.36
19761;BME280;10039;42.632;23.408;2024-03-29T02:01:00;94860.47;;;10.70;59.26
19761;BME280;10039;42.632;23.408;2024-03-29T02:03:27;94874.78;;;10.79;59.47
19761;BME280;10039;42.632;23.408;2024-03-29T02:05:53;94876.28;;;10.80;59.57
19761;BME280;10039;42.632;23.408;2024-03-29T02:08:18;94886.09;;;10.67;59.46
19761;BME280;10039;42.632;23.408;2024-03-29T02:10:47;94882.66;;;10.67;59.31
19761;BME280;10039;42.632;23.408;2024-03-29T02:13:13;94874.16;;;10.72;59.67
19761;BME280;10039;42.632;23.408;2024-03-29T02:15:40;94883.22;;;10.58;59.49
19761;BME280;10039;42.632;23.408;2024-03-29T02:18:06;94905.59;;;10.64;59.21
19761;BME280;10039;42.632;23.408;2024-03-29T02:20:33;94906.69;;;10.67;59.14
19761;BME280;10039;42.632;23.408;2024-03-29T02:23:18;94917.63;;;10.72;59.66
19761;BME280;10039;42.632;23.408;2024-03-29T02:25:46;94926.25;;;10.60;59.29
19761;BME280;10039;42.632;23.408;2024-03-29T02:28:16;94919.63;;;10.49;60.10
19761;BME280;10039;42.632;23.408;2024-03-29T02:30:41;94907.25;;;10.19;59.59
19761;BME280;10039;42.632;23.408;2024-03-29T02:33:07;94932.31;;;10.22;60.37
19761;BME280;10039;42.632;23.408;2024-03-29T02:35:32;94945.81;;;10.34;59.94
19761;BME280;10039;42.632;23.408;2024-03-29T02:37:58;94942.88;;;10.29;60.02
19761;BME280;10039;42.632;23.408;2024-03-29T02:40:24;94958.53;;;10.27;60.54
19761;BME280;10039;42.632;23.408;2024-03-29T02:42:49;94955.78;;;10.30;60.10
19761;BME280;10039;42.632;23.408;2024-03-29T02:45:16;94964.47;;;10.34;60.48
19761;BME280;10039;42.632;23.408;2024-03-29T02:47:41;94959.69;;;10.26;60.35
19761;BME280;10039;42.632;23.408;2024-03-29T02:50:09;94940.22;;;10.06;60.92
19761;BME280;10039;42.632;23.408;2024-03-29T02:52:35;94976.38;;;10.07;61.30
19761;BME280;10039;42.632;23.408;2024-03-29T02:55:01;94968.72;;;9.86;61.27
19761;BME280;10039;42.632;23.408;2024-03-29T02:57:27;94963.75;;;9.88;61.64
19761;BME280;10039;42.632;23.408;2024-03-29T02:59:52;94960.47;;;9.77;61.81
19761;BME280;10039;42.632;23.408;2024-03-29T03:02:18;94971.09;;;9.81;62.12
19761;BME280;10039;42.632;23.408;2024-03-29T03:04:43;94947.44;;;9.60;62.24
19761;BME280;10039;42.632;23.408;2024-03-29T03:07:09;94944.50;;;9.54;61.94
19761;BME280;10039;42.632;23.408;2024-03-29T03:09:53;94965.97;;;9.67;62.73
19761;BME280;10039;42.632;23.408;2024-03-29T03:12:37;94964.78;;;9.71;62.69
19761;BME280;10039;42.632;23.408;2024-03-29T03:15:03;94981.41;;;9.79;62.67
19761;BME280;10039;42.632;23.408;2024-03-29T03:17:29;94973.25;;;9.66;62.07
19761;BME280;10039;42.632;23.408;2024-03-29T03:19:54;94983.31;;;9.78;62.19
19761;BME280;10039;42.632;23.408;2024-03-29T03:22:20;94980.28;;;9.76;62.51
19761;BME280;10039;42.632;23.408;2024-03-29T03:24:45;94958.41;;;9.39;62.85
19761;BME280;10039;42.632;23.408;2024-03-29T03:27:11;95010.56;;;9.63;62.22
19761;BME280;10039;42.632;23.408;2024-03-29T03:29:36;95014.72;;;9.67;62.18
19761;BME280;10039;42.632;23.408;2024-03-29T03:32:03;94998.03;;;9.63;62.03
19761;BME280;10039;42.632;23.408;2024-03-29T03:34:28;95014.91;;;9.80;61.31
19761;BME280;10039;42.632;23.408;2024-03-29T03:36:54;95018.56;;;9.89;60.83
19761;BME280;10039;42.632;23.408;2024-03-29T03:39:20;95016.94;;;9.95;61.18
19761;BME280;10039;42.632;23.408;2024-03-29T03:41:45;95016.97;;;9.92;60.52
19761;BME280;10039;42.632;23.408;2024-03-29T03:44:12;95017.50;;;9.83;61.23
19761;BME280;10039;42.632;23.408;2024-03-29T03:46:37;95027.97;;;9.97;61.15
19761;BME280;10039;42.632;23.408;2024-03-29T03:49:03;95028.06;;;9.90;61.20
19761;BME280;10039;42.632;23.408;2024-03-29T03:51:28;95054.00;;;9.86;61.41
19761;BME280;10039;42.632;23.408;2024-03-29T03:53:54;95004.84;;;9.64;60.89
19761;BME280;10039;42.632;23.408;2024-03-29T03:56:19;95047.88;;;9.89;61.51
19761;BME280;10039;42.632;23.408;2024-03-29T03:58:45;95041.84;;;9.85;61.34
19761;BME280;10039;42.632;23.408;2024-03-29T04:01:10;95050.19;;;9.87;62.03
19761;BME280;10039;42.632;23.408;2024-03-29T04:03:36;95020.16;;;9.57;62.24
19761;BME280;10039;42.632;23.408;2024-03-29T04:06:05;95055.59;;;9.84;62.24
19761;BME280;10039;42.632;23.408;2024-03-29T04:08:31;95060.84;;;9.87;61.72
19761;BME280;10039;42.632;23.408;2024-03-29T04:10:57;95055.63;;;9.80;61.85
19761;BME280;10039;42.632;23.408;2024-03-29T04:13:23;95084.47;;;9.85;61.93
19761;BME280;10039;42.632;23.408;2024-03-29T04:15:48;95084.38;;;9.92;61.90
19761;BME280;10039;42.632;23.408;2024-03-29T04:18:14;95086.00;;;9.86;61.73
19761;BME280;10039;42.632;23.408;2024-03-29T04:20:39;95089.59;;;10.02;61.64
19761;BME280;10039;42.632;23.408;2024-03-29T04:23:06;95033.38;;;9.67;61.93
19761;BME280;10039;42.632;23.408;2024-03-29T04:25:31;95086.97;;;9.99;61.79
19761;BME280;10039;42.632;23.408;2024-03-29T04:27:58;95101.88;;;9.93;61.88
19761;BME280;10039;42.632;23.408;2024-03-29T04:30:24;95104.06;;;10.02;61.84
19761;BME280;10039;42.632;23.408;2024-03-29T04:32:49;95067.84;;;9.78;61.50
19761;BME280;10039;42.632;23.408;2024-03-29T04:35:15;95087.41;;;9.94;61.98
19761;BME280;10039;42.632;23.408;2024-03-29T04:37:40;95104.13;;;9.95;61.51
19761;BME280;10039;42.632;23.408;2024-03-29T04:40:06;95107.22;;;9.93;61.88
19761;BME280;10039;42.632;23.408;2024-03-29T04:42:32;95123.22;;;9.93;61.87
19761;BME280;10039;42.632;23.408;2024-03-29T04:44:58;95130.84;;;9.91;62.03
19761;BME280;10039;42.632;23.408;2024-03-29T04:47:23;95117.97;;;9.86;62.40
19761;BME280;10039;42.632;23.408;2024-03-29T04:49:49;95132.47;;;9.85;62.25
19761;BME280;10039;42.632;23.408;2024-03-29T04:52:14;95142.22;;;9.95;62.51
19761;BME280;10039;42.632;23.408;2024-03-29T04:54:40;95150.56;;;10.01;62.06
19761;BME280;10039;42.632;23.408;2024-03-29T04:57:05;95139.09;;;10.03;62.04
19761;BME280;10039;42.632;23.408;2024-03-29T04:59:34;95142.84;;;10.06;61.57
19761;BME280;10039;42.632;23.408;2024-03-29T05:02:00;95135.19;;;10.08;61.86
19761;BME280;10039;42.632;23.408;2024-03-29T05:04:25;95149.56;;;10.17;61.51
19761;BME280;10039;42.632;23.408;2024-03-29T05:09:18;95128.97;;;10.18;61.74
19761;BME280;10039;42.632;23.408;2024-03-29T05:11:43;95149.69;;;10.33;61.71
19761;BME280;10039;42.632;23.408;2024-03-29T05:14:09;95160.53;;;10.46;61.21
19761;BME280;10039;42.632;23.408;2024-03-29T05:16:35;95155.09;;;10.53;60.89
19761;BME280;10039;42.632;23.408;2024-03-29T05:19:01;95145.03;;;10.64;60.59
19761;BME280;10039;42.632;23.408;2024-03-29T05:21:26;95157.19;;;10.88;60.04
19761;BME280;10039;42.632;23.408;2024-03-29T05:23:52;95158.94;;;10.98;59.86
19761;BME280;10039;42.632;23.408;2024-03-29T05:26:18;95159.78;;;11.14;59.60
19761;BME280;10039;42.632;23.408;2024-03-29T05:28:44;95150.53;;;11.18;59.73
19761;BME280;10039;42.632;23.408;2024-03-29T05:31:13;95155.59;;;11.32;58.87
19761;BME280;10039;42.632;23.408;2024-03-29T05:33:43;95165.56;;;11.51;58.76
19761;BME280;10039;42.632;23.408;2024-03-29T05:36:10;95169.22;;;11.61;58.60
19761;BME280;10039;42.632;23.408;2024-03-29T05:38:38;95172.50;;;11.68;57.93
19761;BME280;10039;42.632;23.408;2024-03-29T05:41:04;95178.75;;;11.81;57.73
19761;BME280;10039;42.632;23.408;2024-03-29T05:43:31;95177.09;;;11.87;57.79
19761;BME280;10039;42.632;23.408;2024-03-29T05:45:57;95174.59;;;11.96;57.25
19761;BME280;10039;42.632;23.408;2024-03-29T05:48:23;95173.81;;;12.15;57.26
19761;BME280;10039;42.632;23.408;2024-03-29T05:50:49;95176.75;;;12.21;57.89
19761;BME280;10039;42.632;23.408;2024-03-29T05:53:14;95166.81;;;12.37;56.71
19761;BME280;10039;42.632;23.408;2024-03-29T05:55:40;95143.22;;;12.32;56.29
19761;BME280;10039;42.632;23.408;2024-03-29T05:58:05;95160.25;;;12.57;56.69
19761;BME280;10039;42.632;23.408;2024-03-29T06:00:32;95163.84;;;12.67;55.70
19761;BME280;10039;42.632;23.408;2024-03-29T06:03:04;95176.31;;;12.89;55.38
19761;BME280;10039;42.632;23.408;2024-03-29T06:05:29;95172.78;;;13.08;55.25
19761;BME280;10039;42.632;23.408;2024-03-29T06:07:55;95180.91;;;13.21;55.27
19761;BME280;10039;42.632;23.408;2024-03-29T06:10:21;95183.53;;;13.37;54.92
19761;BME280;10039;42.632;23.408;2024-03-29T06:12:47;95185.03;;;13.53;54.13
19761;BME280;10039;42.632;23.408;2024-03-29T06:15:13;95169.69;;;13.66;54.28
19761;BME280;10039;42.632;23.408;2024-03-29T06:18:07;95179.44;;;14.01;53.67
19761;BME280;10039;42.632;23.408;2024-03-29T06:20:33;95180.47;;;14.20;52.94
19761;BME280;10039;42.632;23.408;2024-03-29T06:22:59;95188.31;;;14.39;52.61
19761;BME280;10039;42.632;23.408;2024-03-29T06:25:24;95192.50;;;14.65;51.61
19761;BME280;10039;42.632;23.408;2024-03-29T06:27:50;95180.59;;;14.66;51.65
19761;BME280;10039;42.632;23.408;2024-03-29T06:30:15;95150.38;;;14.74;51.31
19761;BME280;10039;42.632;23.408;2024-03-29T06:32:45;95186.31;;;15.14;50.95
19761;BME280;10039;42.632;23.408;2024-03-29T06:35:11;95182.28;;;15.44;51.16
19761;BME280;10039;42.632;23.408;2024-03-29T06:37:38;95182.88;;;15.48;49.73
19761;BME280;10039;42.632;23.408;2024-03-29T06:40:04;95189.63;;;15.65;48.89
19761;BME280;10039;42.632;23.408;2024-03-29T06:42:30;95198.75;;;15.88;48.12
19761;BME280;10039;42.632;23.408;2024-03-29T06:44:56;95190.50;;;16.04;47.27
19761;BME280;10039;42.632;23.408;2024-03-29T06:47:24;95207.88;;;16.12;47.55
19761;BME280;10039;42.632;23.408;2024-03-29T06:49:50;95190.44;;;16.26;47.21
19761;BME280;10039;42.632;23.408;2024-03-29T06:52:15;95197.00;;;16.37;46.20
19761;BME280;10039;42.632;23.408;2024-03-29T06:54:41;95200.34;;;16.50;46.05
19761;BME280;10039;42.632;23.408;2024-03-29T06:57:07;95200.44;;;16.77;45.42
19761;BME280;10039;42.632;23.408;2024-03-29T06:59:34;95185.78;;;16.87;44.68
19761;BME280;10039;42.632;23.408;2024-03-29T07:02:00;95196.00;;;16.92;44.27
19761;BME280;10039;42.632;23.408;2024-03-29T07:04:26;95173.66;;;16.83;44.39
19761;BME280;10039;42.632;23.408;2024-03-29T07:06:53;95201.72;;;17.12;43.93
19761;BME280;10039;42.632;23.408;2024-03-29T07:09:20;95213.59;;;17.23;43.89
19761;BME280;10039;42.632;23.408;2024-03-29T07:11:50;95210.47;;;17.25;43.48
19761;BME280;10039;42.632;23.408;2024-03-29T07:14:16;95213.47;;;17.27;43.05
19761;BME280;10039;42.632;23.408;2024-03-29T07:16:43;95209.91;;;17.39;43.20
19761;BME280;10039;42.632;23.408;2024-03-29T07:19:09;95214.72;;;17.53;43.07
19761;BME280;10039;42.632;23.408;2024-03-29T07:21:34;95207.38;;;17.62;43.42
19761;BME280;10039;42.632;23.408;2024-03-29T07:24:00;95211.13;;;17.83;42.96
19761;BME280;10039;42.632;23.408;2024-03-29T07:26:25;95213.97;;;17.88;42.93
19761;BME280;10039;42.632;23.408;2024-03-29T07:28:51;95216.66;;;18.06;41.96
19761;BME280;10039;42.632;23.408;2024-03-29T07:31:16;95205.22;;;18.20;43.05
19761;BME280;10039;42.632;23.408;2024-03-29T07:33:42;95202.38;;;18.32;42.64
19761;BME280;10039;42.632;23.408;2024-03-29T07:36:07;95188.84;;;18.41;42.12
19761;BME280;10039;42.632;23.408;2024-03-29T07:38:37;95198.69;;;18.62;41.18
19761;BME280;10039;42.632;23.408;2024-03-29T07:41:03;95197.72;;;18.74;40.89
19761;BME280;10039;42.632;23.408;2024-03-29T07:43:41;95189.63;;;18.74;40.09
19761;BME280;10039;42.632;23.408;2024-03-29T07:46:16;95198.09;;;18.91;40.27
19761;BME280;10039;42.632;23.408;2024-03-29T07:48:41;95202.44;;;18.97;42.21
19761;BME280;10039;42.632;23.408;2024-03-29T07:51:07;95209.97;;;19.25;41.19
19761;BME280;10039;42.632;23.408;2024-03-29T07:53:32;95203.94;;;19.54;40.50
19761;BME280;10039;42.632;23.408;2024-03-29T07:55:58;95162.84;;;19.55;40.98
19761;BME280;10039;42.632;23.408;2024-03-29T07:58:23;95199.50;;;19.80;39.42
19761;BME280;10039;42.632;23.408;2024-03-29T08:00:50;95194.38;;;19.82;39.24
19761;BME280;10039;42.632;23.408;2024-03-29T08:03:16;95195.44;;;19.99;39.46
19761;BME280;10039;42.632;23.408;2024-03-29T08:05:41;95197.38;;;20.22;40.55
19761;BME280;10039;42.632;23.408;2024-03-29T08:08:07;95181.09;;;20.07;38.60
19761;BME280;10039;42.632;23.408;2024-03-29T08:10:32;95196.81;;;20.46;40.20
19761;BME280;10039;42.632;23.408;2024-03-29T08:12:58;95187.06;;;20.69;38.29
19761;BME280;10039;42.632;23.408;2024-03-29T08:15:26;95197.06;;;20.63;37.52
19761;BME280;10039;42.632;23.408;2024-03-29T08:17:52;95186.50;;;20.50;38.60
19761;BME280;10039;42.632;23.408;2024-03-29T08:20:18;95186.81;;;20.38;37.33
19761;BME280;10039;42.632;23.408;2024-03-29T08:22:44;95183.69;;;20.59;37.78
19761;BME280;10039;42.632;23.408;2024-03-29T08:25:10;95181.41;;;20.72;39.75
19761;BME280;10039;42.632;23.408;2024-03-29T08:27:35;95174.50;;;20.86;36.95
19761;BME280;10039;42.632;23.408;2024-03-29T08:30:01;95164.31;;;20.81;37.95
19761;BME280;10039;42.632;23.408;2024-03-29T08:32:26;95167.75;;;20.96;36.90
19761;BME280;10039;42.632;23.408;2024-03-29T08:34:52;95176.72;;;21.02;36.91
19761;BME280;10039;42.632;23.408;2024-03-29T08:37:17;95167.41;;;21.08;37.82
19761;BME280;10039;42.632;23.408;2024-03-29T08:39:43;95150.75;;;20.66;36.56
19761;BME280;10039;42.632;23.408;2024-03-29T08:42:09;95171.06;;;20.85;36.72
19761;BME280;10039;42.632;23.408;2024-03-29T08:44:37;95163.28;;;20.78;37.33
19761;BME280;10039;42.632;23.408;2024-03-29T08:47:04;95156.63;;;20.94;37.79
19761;BME280;10039;42.632;23.408;2024-03-29T08:49:30;95136.84;;;20.93;38.44
19761;BME280;10039;42.632;23.408;2024-03-29T08:51:58;95154.63;;;20.94;36.74
19761;BME280;10039;42.632;23.408;2024-03-29T08:54:25;95159.50;;;20.90;37.12
19761;BME280;10039;42.632;23.408;2024-03-29T08:56:53;95148.59;;;20.70;37.60
19761;BME280;10039;42.632;23.408;2024-03-29T08:59:18;95153.06;;;20.73;36.34
19761;BME280;10039;42.632;23.408;2024-03-29T09:01:47;95145.13;;;20.84;37.93
19761;BME280;10039;42.632;23.408;2024-03-29T09:04:16;95143.25;;;21.10;37.70
19761;BME280;10039;42.632;23.408;2024-03-29T09:06:42;95138.09;;;21.12;37.20
19761;BME280;10039;42.632;23.408;2024-03-29T09:09:07;95129.38;;;20.88;36.91
19761;BME280;10039;42.632;23.408;2024-03-29T09:11:34;95135.44;;;20.98;36.74
19761;BME280;10039;42.632;23.408;2024-03-29T09:13:59;95131.03;;;21.20;37.24
19761;BME280;10039;42.632;23.408;2024-03-29T09:16:26;95120.03;;;21.29;37.94
19761;BME280;10039;42.632;23.408;2024-03-29T09:18:54;95083.66;;;21.21;36.72
19761;BME280;10039;42.632;23.408;2024-03-29T09:21:21;95119.63;;;21.36;38.38
19761;BME280;10039;42.632;23.408;2024-03-29T09:23:46;95119.56;;;21.50;35.93
19761;BME280;10039;42.632;23.408;2024-03-29T09:26:17;95087.13;;;21.22;36.19
19761;BME280;10039;42.632;23.408;2024-03-29T09:28:43;95112.25;;;21.17;36.61
19761;BME280;10039;42.632;23.408;2024-03-29T09:31:08;95097.88;;;20.76;35.81
19761;BME280;10039;42.632;23.408;2024-03-29T09:33:34;95090.91;;;20.55;36.57
19761;BME280;10039;42.632;23.408;2024-03-29T09:36:00;95090.22;;;20.60;36.22
19761;BME280;10039;42.632;23.408;2024-03-29T09:38:26;95085.59;;;20.46;36.88
19761;BME280;10039;42.632;23.408;2024-03-29T09:43:33;95040.09;;;20.36;36.94
19761;BME280;10039;42.632;23.408;2024-03-29T09:45:59;95076.16;;;20.76;36.41
19761;BME280;10039;42.632;23.408;2024-03-29T09:48:25;95086.88;;;21.00;38.11
19761;BME280;10039;42.632;23.408;2024-03-29T09:50:53;95084.06;;;20.94;38.38
19761;BME280;10039;42.632;23.408;2024-03-29T09:53:21;95074.63;;;20.90;36.22
19761;BME280;10039;42.632;23.408;2024-03-29T09:55:49;95066.84;;;20.97;36.29
19761;BME280;10039;42.632;23.408;2024-03-29T09:58:15;95065.06;;;20.94;35.83
19761;BME280;10039;42.632;23.408;2024-03-29T10:00:41;95056.53;;;21.01;38.55
19761;BME280;10039;42.632;23.408;2024-03-29T10:03:07;95059.19;;;20.96;36.92
19761;BME280;10039;42.632;23.408;2024-03-29T10:05:34;95064.81;;;21.12;35.40
19761;BME280;10039;42.632;23.408;2024-03-29T10:08:00;95067.78;;;20.94;35.89
19761;BME280;10039;42.632;23.408;2024-03-29T10:10:31;95040.63;;;20.74;35.79
19761;BME280;10039;42.632;23.408;2024-03-29T10:12:57;95050.88;;;20.85;37.37
19761;BME280;10039;42.632;23.408;2024-03-29T10:15:24;95067.16;;;20.85;36.34
19761;BME280;10039;42.632;23.408;2024-03-29T10:17:52;95043.53;;;20.71;37.25
19761;BME280;10039;42.632;23.408;2024-03-29T10:20:18;95020.66;;;20.57;37.55
19761;BME280;10039;42.632;23.408;2024-03-29T10:22:45;95048.38;;;20.81;38.10
19761;BME280;10039;42.632;23.408;2024-03-29T10:25:15;95023.97;;;20.81;38.61
19761;BME280;10039;42.632;23.408;2024-03-29T10:27:41;95020.81;;;20.88;38.06
19761;BME280;10039;42.632;23.408;2024-03-29T10:30:08;95032.44;;;20.89;36.88
19761;BME280;10039;42.632;23.408;2024-03-29T10:32:43;95041.41;;;20.95;36.11
19761;BME280;10039;42.632;23.408;2024-03-29T10:35:09;95036.59;;;20.84;36.65
19761;BME280;10039;42.632;23.408;2024-03-29T10:37:36;95049.31;;;20.78;36.35
19761;BME280;10039;42.632;23.408;2024-03-29T10:40:10;95043.41;;;20.80;36.80
19761;BME280;10039;42.632;23.408;2024-03-29T10:42:37;95016.88;;;20.49;37.51
19761;BME280;10039;42.632;23.408;2024-03-29T10:45:05;95035.28;;;20.80;38.46
19761;BME280;10039;42.632;23.408;2024-03-29T10:47:32;95033.88;;;20.84;37.41
19761;BME280;10039;42.632;23.408;2024-03-29T10:49:58;95022.59;;;20.91;38.03
19761;BME280;10039;42.632;23.408;2024-03-29T10:52:25;95031.75;;;20.94;37.17
19761;BME280;10039;42.632;23.408;2024-03-29T10:54:51;95036.25;;;20.97;36.39
19761;BME280;10039;42.632;23.408;2024-03-29T10:57:23;95033.72;;;20.93;36.83
19761;BME280;10039;42.632;23.408;2024-03-29T11:00:12;95004.25;;;20.66;37.03
19761;BME280;10039;42.632;23.408;2024-03-29T11:05:21;95013.50;;;20.94;36.69
19761;BME280;10039;42.632;23.408;2024-03-29T11:07:49;95014.44;;;20.91;35.92
19761;BME280;10039;42.632;23.408;2024-03-29T11:10:20;95013.50;;;20.94;35.12
19761;BME280;10039;42.632;23.408;2024-03-29T11:15:49;95019.53;;;20.84;36.06
19761;BME280;10039;42.632;23.408;2024-03-29T11:18:16;95015.47;;;20.94;36.18
19761;BME280;10039;42.632;23.408;2024-03-29T11:20:45;95011.19;;;20.87;36.60
19761;BME280;10039;42.632;23.408;2024-03-29T11:23:17;95000.47;;;20.78;36.09
19761;BME280;10039;42.632;23.408;2024-03-29T11:25:49;94997.44;;;20.91;35.68
19761;BME280;10039;42.632;23.408;2024-03-29T11:28:24;94997.97;;;20.95;36.00
19761;BME280;10039;42.632;23.408;2024-03-29T11:30:51;94994.13;;;20.81;35.98
19761;BME280;10039;42.632;23.408;2024-03-29T11:35:51;95011.28;;;20.93;36.45
19761;BME280;10039;42.632;23.408;2024-03-29T11:38:18;94995.25;;;20.95;36.11
19761;BME280;10039;42.632;23.408;2024-03-29T11:40:55;95008.22;;;21.05;36.19
19761;BME280;10039;42.632;23.408;2024-03-29T11:43:25;95000.59;;;21.09;35.98
19761;BME280;10039;42.632;23.408;2024-03-29T11:45:54;95009.81;;;21.17;35.49
19761;BME280;10039;42.632;23.408;2024-03-29T11:48:25;95003.38;;;21.15;36.12
19761;BME280;10039;42.632;23.408;2024-03-29T11:50:52;94996.94;;;21.12;36.04
19761;BME280;10039;42.632;23.408;2024-03-29T11:53:19;95003.91;;;21.19;36.08
19761;BME280;10039;42.632;23.408;2024-03-29T11:55:44;95003.41;;;21.20;36.10
19761;BME280;10039;42.632;23.408;2024-03-29T11:58:10;94998.78;;;21.26;35.64
19761;BME280;10039;42.632;23.408;2024-03-29T12:00:38;94995.41;;;21.31;35.89
19761;BME280;10039;42.632;23.408;2024-03-29T12:03:04;94991.13;;;21.25;35.54
19761;BME280;10039;42.632;23.408;2024-03-29T12:05:30;94981.88;;;21.11;36.93
19761;BME280;10039;42.632;23.408;2024-03-29T12:07:57;94985.63;;;21.19;36.72
19761;BME280;10039;42.632;23.408;2024-03-29T12:10:29;94985.22;;;21.26;36.17
19761;BME280;10039;42.632;23.408;2024-03-29T12:12:59;94964.69;;;21.20;36.73
19761;BME280;10039;42.632;23.408;2024-03-29T12:15:27;94981.19;;;21.16;36.91
19761;BME280;10039;42.632;23.408;2024-03-29T12:18:20;94994.94;;;21.33;36.63
19761;BME280;10039;42.632;23.408;2024-03-29T12:20:50;94981.00;;;21.25;36.98
19761;BME280;10039;42.632;23.408;2024-03-29T12:23:20;94985.06;;;21.35;37.34
19761;BME280;10039;42.632;23.408;2024-03-29T12:25:47;94955.84;;;21.25;36.71
19761;BME280;10039;42.632;23.408;2024-03-29T12:28:14;94972.34;;;21.47;36.71
19761;BME280;10039;42.632;23.408;2024-03-29T12:30:46;94980.38;;;21.61;36.84
19761;BME280;10039;42.632;23.408;2024-03-29T12:33:14;94963.00;;;21.53;36.27
19761;BME280;10039;42.632;23.408;2024-03-29T12:35:44;94975.44;;;21.59;37.10
19761;BME280;10039;42.632;23.408;2024-03-29T12:38:13;94958.72;;;21.41;36.96
19761;BME280;10039;42.632;23.408;2024-03-29T12:40:41;94965.44;;;21.51;37.03
19761;BME280;10039;42.632;23.408;2024-03-29T12:43:09;94972.78;;;21.65;38.21
19761;BME280;10039;42.632;23.408;2024-03-29T12:45:36;94972.63;;;21.79;36.55
19761;BME280;10039;42.632;23.408;2024-03-29T12:48:02;94972.88;;;21.76;37.44
19761;BME280;10039;42.632;23.408;2024-03-29T12:50:31;94962.53;;;21.80;36.91
19761;BME280;10039;42.632;23.408;2024-03-29T12:52:59;94944.66;;;21.73;37.02
19761;BME280;10039;42.632;23.408;2024-03-29T12:55:26;94961.03;;;21.79;36.61
19761;BME280;10039;42.632;23.408;2024-03-29T12:58:04;94964.06;;;21.86;36.10
19761;BME280;10039;42.632;23.408;2024-03-29T13:00:35;94964.22;;;21.77;36.71
19761;BME280;10039;42.632;23.408;2024-03-29T13:03:05;94956.03;;;21.72;37.30
19761;BME280;10039;42.632;23.408;2024-03-29T13:05:31;94970.34;;;21.72;36.52